createdAt,value
2023-02-16T00:01:54.494Z,100806.69
2023-02-16T00:04:27.483Z,100803.05
2023-02-16T00:06:55.840Z,100803.07
2023-02-16T00:09:24.177Z,100803.05
2023-02-16T00:12:11.600Z,100798.16
2023-02-16T00:14:41.332Z,100797.80
2023-02-16T00:17:10.360Z,100795.41
2023-02-16T00:19:39.871Z,100796.25
2023-02-16T00:22:08.985Z,100793.87
2023-02-16T00:24:37.840Z,100794.35
2023-02-16T00:27:13.200Z,100794.39
2023-02-16T00:29:41.771Z,100795.48
2023-02-16T00:32:11.664Z,100797.05
2023-02-16T00:34:43.307Z,100796.73
2023-02-16T00:37:12.999Z,100799.88
2023-02-16T00:39:43.626Z,100798.88
2023-02-16T00:42:24.083Z,100801.38
2023-02-16T00:44:54.108Z,100804.55
2023-02-16T00:47:38.326Z,100794.90
2023-02-16T00:50:19.919Z,100787.83
2023-02-16T00:52:49.199Z,100781.61
2023-02-16T00:55:19.031Z,100784.03
2023-02-16T00:57:55.612Z,100780.24
2023-02-16T01:00:30.102Z,100771.25
2023-02-16T01:03:00.248Z,100770.70
2023-02-16T01:05:28.904Z,100773.04
2023-02-16T01:08:18.196Z,100774.08
2023-02-16T01:10:58.719Z,100774.83
2023-02-16T01:13:28.765Z,100773.60
2023-02-16T01:15:57.149Z,100771.54
2023-02-16T01:18:25.102Z,100771.56
2023-02-16T01:20:53.292Z,100767.59
2023-02-16T01:23:21.441Z,100765.14
2023-02-16T01:25:50.190Z,100765.89
2023-02-16T01:28:21.499Z,100762.27
2023-02-16T01:30:52.110Z,100763.13
2023-02-16T01:33:21.044Z,100765.03
2023-02-16T01:35:50.965Z,100762.96
2023-02-16T01:38:21.879Z,100766.03
2023-02-16T01:41:29.080Z,100763.77
2023-02-16T01:44:05.102Z,100762.77
2023-02-16T01:46:36.333Z,100767.49
2023-02-16T01:49:04.831Z,100764.36
2023-02-16T01:51:41.293Z,100766.05
2023-02-16T01:54:16.878Z,100767.41
2023-02-16T01:56:50.323Z,100772.47
2023-02-16T01:59:31.238Z,100775.11
2023-02-16T02:02:01.704Z,100771.46
2023-02-16T02:04:49.032Z,100774.20
2023-02-16T02:07:46.473Z,100770.02
2023-02-16T02:10:17.625Z,100769.29
2023-02-16T02:13:07.925Z,100771.52
2023-02-16T02:15:37.191Z,100772.16
2023-02-16T02:18:05.499Z,100773.39
2023-02-16T02:21:09.032Z,100772.93
2023-02-16T02:23:44.007Z,100774.73
2023-02-16T02:26:32.640Z,100775.13
2023-02-16T02:29:41.830Z,100777.12
2023-02-16T02:32:22.381Z,100777.09
2023-02-16T02:34:54.077Z,100776.98
2023-02-16T02:37:28.425Z,100775.49
2023-02-16T02:40:15.126Z,100771.12
2023-02-16T02:43:22.433Z,100771.67
2023-02-16T02:45:53.147Z,100774.50
2023-02-16T02:48:22.028Z,100771.48
2023-02-16T02:54:38.162Z,100772.11
2023-02-16T02:58:03.171Z,100773.58
2023-02-16T03:00:40.510Z,100775.93
2023-02-16T03:03:10.092Z,100774.86
2023-02-16T03:05:37.619Z,100771.33
2023-02-16T03:08:13.583Z,100772.93
2023-02-16T03:11:07.939Z,100774.23
2023-02-16T03:13:40.092Z,100773.97
2023-02-16T03:16:29.392Z,100768.59
2023-02-16T03:19:15.495Z,100767.59
2023-02-16T03:22:00.836Z,100764.10
2023-02-16T03:24:48.515Z,100757.38
2023-02-16T03:27:39.929Z,100759.46
2023-02-16T03:30:07.645Z,100755.55
2023-02-16T03:32:34.482Z,100757.23
2023-02-16T03:35:01.568Z,100756.00
2023-02-16T03:37:29.231Z,100753.61
2023-02-16T03:40:14.529Z,100750.54
2023-02-16T03:42:49.801Z,100743.55
2023-02-16T03:45:17.253Z,100740.44
2023-02-16T03:47:44.770Z,100736.61
2023-02-16T03:50:11.367Z,100738.33
2023-02-16T03:52:38.422Z,100736.08
2023-02-16T03:55:06.012Z,100738.95
2023-02-16T03:57:33.579Z,100731.70
2023-02-16T04:00:00.648Z,100734.02
2023-02-16T04:02:28.182Z,100734.24
2023-02-16T04:04:54.962Z,100727.92
2023-02-16T04:07:21.676Z,100729.16
2023-02-16T04:09:48.244Z,100733.75
2023-02-16T04:12:33.693Z,100735.08
2023-02-16T04:15:00.650Z,100733.78
2023-02-16T04:17:29.607Z,100730.70
2023-02-16T04:19:56.271Z,100726.61
2023-02-16T04:22:26.075Z,100727.45
2023-02-16T04:24:52.813Z,100726.71
2023-02-16T04:27:19.606Z,100723.77
2023-02-16T04:29:46.706Z,100724.15
2023-02-16T04:32:13.383Z,100715.14
2023-02-16T04:34:40.365Z,100711.02
2023-02-16T04:37:07.117Z,100712.77
2023-02-16T04:39:34.617Z,100711.83
2023-02-16T04:42:01.520Z,100708.42
2023-02-16T04:44:28.070Z,100702.23
2023-02-16T04:46:55.007Z,100697.30
2023-02-16T04:49:22.135Z,100692.02
2023-02-16T04:51:49.000Z,100691.73
2023-02-16T04:54:15.933Z,100692.11
2023-02-16T04:56:46.033Z,100687.92
2023-02-16T04:59:15.134Z,100685.95
2023-02-16T05:01:43.146Z,100684.13
2023-02-16T05:04:10.270Z,100681.04
2023-02-16T05:06:38.062Z,100682.27
2023-02-16T05:09:05.295Z,100678.94
2023-02-16T05:11:53.795Z,100683.56
2023-02-16T05:14:42.571Z,100682.70
2023-02-16T05:17:19.478Z,100684.20
2023-02-16T05:19:53.057Z,100691.27
2023-02-16T05:22:20.254Z,100688.79
2023-02-16T05:24:48.041Z,100687.56
2023-02-16T05:27:17.404Z,100688.14
2023-02-16T05:29:43.992Z,100690.60
2023-02-16T05:32:11.188Z,100688.42
2023-02-16T05:34:38.755Z,100693.61
2023-02-16T05:37:12.987Z,100692.99
2023-02-16T05:39:40.417Z,100690.59
2023-02-16T05:42:08.337Z,100688.98
2023-02-16T05:44:35.092Z,100690.36
2023-02-16T05:47:01.994Z,100689.20
2023-02-16T05:49:33.324Z,100688.02
2023-02-16T05:52:00.249Z,100682.61
2023-02-16T05:54:27.437Z,100682.83
2023-02-16T05:56:54.523Z,100684.74
2023-02-16T05:59:21.489Z,100690.34
2023-02-16T06:01:51.621Z,100694.79
2023-02-16T06:04:19.286Z,100698.57
2023-02-16T06:06:45.894Z,100694.59
2023-02-16T06:09:12.639Z,100697.63
2023-02-16T06:11:41.105Z,100696.80
2023-02-16T06:14:14.145Z,100691.95
2023-02-16T06:16:43.788Z,100693.73
2023-02-16T06:19:11.145Z,100689.80
2023-02-16T06:21:38.323Z,100690.89
2023-02-16T06:24:06.245Z,100692.61
2023-02-16T06:26:34.529Z,100695.50
2023-02-16T06:29:01.539Z,100696.67
2023-02-16T06:31:28.731Z,100699.20
2023-02-16T06:33:56.502Z,100700.26
2023-02-16T06:36:24.522Z,100692.86
2023-02-16T06:38:51.655Z,100691.23
2023-02-16T06:41:30.583Z,100686.82
2023-02-16T06:43:58.731Z,100686.56
2023-02-16T06:46:25.472Z,100685.54
2023-02-16T06:48:52.386Z,100681.98
2023-02-16T06:51:27.565Z,100685.49
2023-02-16T06:53:56.721Z,100685.75
2023-02-16T06:56:24.084Z,100684.84
2023-02-16T06:58:51.351Z,100684.42
2023-02-16T07:01:23.200Z,100683.36
2023-02-16T07:03:50.816Z,100678.38
2023-02-16T07:06:18.219Z,100679.53
2023-02-16T07:08:52.642Z,100678.48
2023-02-16T07:11:20.260Z,100680.83
2023-02-16T07:13:47.700Z,100673.39
2023-02-16T07:16:15.344Z,100665.02
2023-02-16T07:18:42.444Z,100665.56
2023-02-16T07:21:09.487Z,100662.24
2023-02-16T07:23:37.163Z,100661.14
2023-02-16T07:26:04.195Z,100659.29
2023-02-16T07:28:31.064Z,100655.32
2023-02-16T07:30:57.682Z,100656.48
2023-02-16T07:33:24.887Z,100655.38
2023-02-16T07:35:51.878Z,100651.29
2023-02-16T07:38:19.012Z,100649.01
2023-02-16T07:40:46.051Z,100641.55
2023-02-16T07:43:16.039Z,100640.17
2023-02-16T07:45:42.873Z,100633.60
2023-02-16T07:48:09.590Z,100629.13
2023-02-16T07:50:37.116Z,100633.86
2023-02-16T07:53:04.212Z,100631.96
2023-02-16T07:55:32.178Z,100630.61
2023-02-16T07:57:59.603Z,100626.65
2023-02-16T08:00:26.784Z,100629.66
2023-02-16T08:02:53.527Z,100627.43
2023-02-16T08:05:20.313Z,100627.08
2023-02-16T08:07:47.929Z,100629.48
2023-02-16T08:10:15.621Z,100626.52
2023-02-16T08:12:44.549Z,100625.96
2023-02-16T08:15:11.532Z,100624.25
2023-02-16T08:17:38.972Z,100618.39
2023-02-16T08:20:07.047Z,100615.39
2023-02-16T08:22:34.772Z,100620.86
2023-02-16T08:25:01.941Z,100614.52
2023-02-16T08:27:29.706Z,100612.90
2023-02-16T08:29:57.627Z,100609.89
2023-02-16T08:32:24.915Z,100612.98
2023-02-16T08:35:09.589Z,100612.70
2023-02-16T08:37:37.676Z,100610.77
2023-02-16T08:40:07.715Z,100610.88
2023-02-16T08:42:35.213Z,100613.12
2023-02-16T08:45:02.742Z,100611.27
2023-02-16T08:47:30.461Z,100609.55
2023-02-16T08:49:57.118Z,100608.07
2023-02-16T08:52:24.545Z,100597.88
2023-02-16T08:54:52.210Z,100598.41
2023-02-16T08:57:19.332Z,100598.69
2023-02-16T09:00:06.454Z,100600.45
2023-02-16T09:02:34.117Z,100599.39
2023-02-16T09:05:02.907Z,100603.81
2023-02-16T09:07:34.428Z,100601.04
2023-02-16T09:10:02.218Z,100605.64
2023-02-16T09:12:30.582Z,100604.52
2023-02-16T09:14:59.072Z,100599.57
2023-02-16T09:17:26.362Z,100595.52
2023-02-16T09:19:56.520Z,100590.16
2023-02-16T09:22:23.570Z,100594.00
2023-02-16T09:24:51.374Z,100587.92
2023-02-16T09:27:34.163Z,100594.63
2023-02-16T09:30:00.849Z,100587.45
2023-02-16T09:32:29.458Z,100582.27
2023-02-16T09:34:56.126Z,100585.14
2023-02-16T09:37:23.290Z,100583.34
2023-02-16T09:39:50.062Z,100580.10
2023-02-16T09:42:24.853Z,100575.67
2023-02-16T09:45:09.255Z,100573.39
2023-02-16T09:47:42.374Z,100576.25
2023-02-16T09:50:38.213Z,100568.11
2023-02-16T09:53:20.812Z,100564.36
2023-02-16T09:55:53.765Z,100562.43
2023-02-16T09:58:22.272Z,100569.04
2023-02-16T10:00:51.818Z,100567.29
2023-02-16T10:03:31.647Z,100558.64
2023-02-16T10:06:13.693Z,100558.08
2023-02-16T10:08:51.160Z,100549.77
2023-02-16T10:11:37.559Z,100547.73
2023-02-16T10:14:31.342Z,100544.40
2023-02-16T10:17:06.195Z,100548.98
2023-02-16T10:19:40.876Z,100546.58
2023-02-16T10:22:10.743Z,100536.08
2023-02-16T10:24:43.826Z,100532.48
2023-02-16T10:27:13.771Z,100525.60
2023-02-16T10:29:40.663Z,100524.64
2023-02-16T10:32:28.622Z,100524.67
2023-02-16T10:35:18.864Z,100519.81
2023-02-16T10:37:51.984Z,100514.50
2023-02-16T10:40:31.308Z,100512.43
2023-02-16T10:43:04.063Z,100510.17
2023-02-16T10:45:49.618Z,100509.40
2023-02-16T10:48:22.280Z,100503.51
2023-02-16T10:51:05.828Z,100500.64
2023-02-16T10:53:47.832Z,100494.96
2023-02-16T10:56:45.614Z,100487.58
2023-02-16T10:59:16.656Z,100481.77
2023-02-16T11:01:45.743Z,100483.07
2023-02-16T11:04:32.218Z,100483.95
2023-02-16T11:07:10.818Z,100479.56
2023-02-16T11:09:38.829Z,100478.55
2023-02-16T11:12:37.786Z,100483.26
2023-02-16T11:15:15.986Z,100475.91
2023-02-16T11:17:51.945Z,100470.16
2023-02-16T11:20:32.087Z,100469.53
2023-02-16T11:23:16.924Z,100458.66
2023-02-16T11:26:10.070Z,100453.46
2023-02-16T11:28:39.553Z,100452.83
2023-02-16T11:31:09.201Z,100446.58
2023-02-16T11:33:37.105Z,100446.77
2023-02-16T11:36:23.820Z,100437.83
2023-02-16T11:39:11.092Z,100436.70
2023-02-16T11:41:38.794Z,100428.15
2023-02-16T11:44:05.741Z,100421.58
2023-02-16T11:46:38.741Z,100420.42
2023-02-16T11:49:24.908Z,100413.79
2023-02-16T11:51:51.710Z,100409.14
2023-02-16T11:54:18.451Z,100405.27
2023-02-16T11:56:45.517Z,100403.04
2023-02-16T11:59:20.870Z,100402.01
2023-02-16T12:02:24.715Z,100393.92
2023-02-16T12:05:04.538Z,100383.02
2023-02-16T12:08:15.525Z,100377.59
2023-02-16T12:11:04.771Z,100376.89
2023-02-16T12:14:12.230Z,100376.06
2023-02-16T12:16:53.942Z,100367.16
2023-02-16T12:19:23.951Z,100367.91
2023-02-16T12:21:53.113Z,100362.20
2023-02-16T12:24:42.667Z,100360.94
2023-02-16T12:27:20.821Z,100354.35
2023-02-16T12:30:09.212Z,100354.33
2023-02-16T12:33:01.146Z,100348.58
2023-02-16T12:35:53.796Z,100345.36
2023-02-16T12:38:42.898Z,100345.85
2023-02-16T12:41:21.200Z,100343.27
2023-02-16T12:43:52.825Z,100344.33
2023-02-16T12:46:32.682Z,100344.13
2023-02-16T12:49:34.420Z,100341.84
2023-02-16T12:52:10.226Z,100335.86
2023-02-16T12:54:49.541Z,100337.00
2023-02-16T12:57:19.940Z,100327.43
2023-02-16T12:59:54.936Z,100324.42
2023-02-16T13:02:31.296Z,100327.91
2023-02-16T13:05:10.544Z,100325.63
2023-02-16T13:07:39.452Z,100318.25
2023-02-16T13:10:18.207Z,100319.64
2023-02-16T13:12:57.804Z,100315.80
2023-02-16T13:15:47.074Z,100313.84
2023-02-16T13:18:22.492Z,100313.70
2023-02-16T13:21:03.619Z,100316.27
2023-02-16T13:23:40.660Z,100306.94
2023-02-16T13:26:33.028Z,100304.13
2023-02-16T13:29:38.787Z,100299.37
2023-02-16T13:32:29.719Z,100293.79
2023-02-16T13:35:21.789Z,100283.33
2023-02-16T13:38:15.222Z,100280.79
2023-02-16T13:40:48.410Z,100280.15
2023-02-16T13:43:40.767Z,100281.88
2023-02-16T13:46:13.519Z,100277.48
2023-02-16T13:48:49.696Z,100274.73
2023-02-16T13:51:26.820Z,100276.98
2023-02-16T13:54:01.151Z,100271.39
2023-02-16T13:56:28.972Z,100268.00
2023-02-16T13:59:23.803Z,100267.63
2023-02-16T14:01:53.565Z,100271.80
2023-02-16T14:04:24.260Z,100270.58
2023-02-16T14:07:14.519Z,100268.77
2023-02-16T14:09:41.464Z,100264.70
2023-02-16T14:12:11.081Z,100258.80
2023-02-16T14:14:40.956Z,100257.80
2023-02-16T14:17:21.094Z,100256.78
2023-02-16T14:19:52.527Z,100252.89
2023-02-16T14:22:56.743Z,100251.21
2023-02-16T14:25:23.535Z,100249.06
2023-02-16T14:28:13.434Z,100249.18
2023-02-16T14:30:52.798Z,100246.80
2023-02-16T14:33:32.792Z,100240.10
2023-02-16T14:35:59.745Z,100243.33
2023-02-16T14:38:32.513Z,100239.50
2023-02-16T14:41:00.689Z,100230.47
2023-02-16T14:43:34.714Z,100219.68
2023-02-16T14:46:05.045Z,100214.96
2023-02-16T14:48:51.093Z,100214.90
2023-02-16T14:51:56.347Z,100213.18
2023-02-16T14:55:01.225Z,100206.14
2023-02-16T14:57:27.663Z,100208.25
2023-02-16T15:00:13.315Z,100205.70
2023-02-16T15:02:42.621Z,100203.73
2023-02-16T15:05:39.319Z,100200.76
2023-02-16T15:08:17.026Z,100200.45
2023-02-16T15:12:15.758Z,100200.92
2023-02-16T15:15:03.000Z,100203.91
2023-02-16T15:17:39.390Z,100200.59
2023-02-16T15:20:10.944Z,100199.91
2023-02-16T15:22:44.639Z,100199.75
2023-02-16T15:25:30.084Z,100197.14
2023-02-16T15:27:59.335Z,100194.41
2023-02-16T15:30:30.027Z,100191.59
2023-02-16T15:33:01.190Z,100190.61
2023-02-16T15:35:39.729Z,100188.75
2023-02-16T15:38:17.061Z,100185.39
2023-02-16T15:40:45.618Z,100182.61
2023-02-16T15:43:34.700Z,100183.23
2023-02-16T15:46:05.593Z,100180.58
2023-02-16T15:48:38.976Z,100180.75
2023-02-16T15:51:11.782Z,100173.86
2023-02-16T15:53:47.367Z,100172.00
2023-02-16T15:56:28.315Z,100171.70
2023-02-16T15:59:01.791Z,100176.05
2023-02-16T16:01:33.355Z,100170.17
2023-02-16T16:04:06.562Z,100170.17
2023-02-16T16:06:38.947Z,100163.33
2023-02-16T16:09:08.645Z,100164.55
2023-02-16T16:11:39.841Z,100157.16
2023-02-16T16:14:10.361Z,100151.88
2023-02-16T16:16:38.870Z,100150.05
2023-02-16T16:19:20.258Z,100151.40
2023-02-16T16:21:54.445Z,100148.02
2023-02-16T16:24:39.444Z,100149.62
2023-02-16T16:27:10.636Z,100135.30
2023-02-16T16:29:47.559Z,100142.88
2023-02-16T16:32:29.364Z,100146.05
2023-02-16T16:35:02.922Z,100142.75
2023-02-16T16:37:33.651Z,100141.79
2023-02-16T16:40:20.966Z,100138.89
2023-02-16T16:43:04.683Z,100136.98
2023-02-16T16:45:43.052Z,100134.00
2023-02-16T16:48:42.021Z,100130.90
2023-02-16T16:51:19.250Z,100126.35
2023-02-16T16:53:52.340Z,100127.75
2023-02-16T16:56:20.958Z,100117.13
2023-02-16T16:58:52.328Z,100114.94
2023-02-16T17:01:20.827Z,100106.37
2023-02-16T17:03:49.359Z,100107.67
2023-02-16T17:06:19.002Z,100101.36
2023-02-16T17:08:50.374Z,100102.55
2023-02-16T17:11:36.459Z,100095.61
2023-02-16T17:14:15.366Z,100088.39
2023-02-16T17:16:45.188Z,100089.54
2023-02-16T17:19:15.121Z,100088.46
2023-02-16T17:21:43.559Z,100093.89
2023-02-16T17:24:11.812Z,100087.91
2023-02-16T17:26:40.628Z,100088.83
2023-02-16T17:29:09.720Z,100087.90
2023-02-16T17:31:37.820Z,100083.90
2023-02-16T17:34:06.294Z,100080.91
2023-02-16T17:36:36.405Z,100083.54
2023-02-16T17:39:09.072Z,100078.15
2023-02-16T17:41:37.054Z,100076.97
2023-02-16T17:44:05.421Z,100076.87
2023-02-16T17:46:41.894Z,100072.61
2023-02-16T17:49:11.602Z,100069.41
2023-02-16T17:51:39.876Z,100063.81
2023-02-16T17:54:10.934Z,100058.95
2023-02-16T17:56:42.007Z,100062.23
2023-02-16T17:59:14.338Z,100061.21
2023-02-16T18:01:43.823Z,100058.84
2023-02-16T18:04:12.353Z,100057.10
2023-02-16T18:06:41.098Z,100056.62
2023-02-16T18:09:14.744Z,100052.55
2023-02-16T18:11:43.279Z,100047.25
2023-02-16T18:14:12.685Z,100045.52
2023-02-16T18:16:40.755Z,100042.10
2023-02-16T18:19:14.822Z,100040.03
2023-02-16T18:21:45.327Z,100036.70
2023-02-16T18:24:13.755Z,100038.10
2023-02-16T18:26:42.141Z,100034.73
2023-02-16T18:29:10.548Z,100030.92
2023-02-16T18:31:40.802Z,100029.09
2023-02-16T18:34:10.059Z,100027.29
2023-02-16T18:36:38.574Z,100024.17
2023-02-16T18:39:07.212Z,100030.70
2023-02-16T18:41:36.060Z,100026.42
2023-02-16T18:44:05.228Z,100026.11
2023-02-16T18:46:33.705Z,100023.90
2023-02-16T18:49:02.592Z,100023.89
2023-02-16T18:51:32.110Z,100024.56
2023-02-16T18:54:05.153Z,100020.52
2023-02-16T18:56:35.501Z,100021.03
2023-02-16T18:59:03.987Z,100020.83
2023-02-16T19:01:33.356Z,100014.36
2023-02-16T19:04:03.160Z,100011.74
2023-02-16T19:06:31.912Z,100009.82
2023-02-16T19:09:00.477Z,100001.54
2023-02-16T19:11:30.925Z,99995.67
2023-02-16T19:13:58.860Z,99991.72
2023-02-16T19:16:27.218Z,99988.73
2023-02-16T19:18:55.640Z,99986.09
2023-02-16T19:21:24.111Z,99978.77
2023-02-16T19:23:52.584Z,99978.63
2023-02-16T19:26:21.277Z,99974.02
2023-02-16T19:28:49.472Z,99971.45
2023-02-16T19:31:23.638Z,99969.22
2023-02-16T19:33:52.560Z,99964.90
2023-02-16T19:36:20.731Z,99964.08
2023-02-16T19:38:49.709Z,99960.59
2023-02-16T19:41:29.358Z,99959.69
2023-02-16T19:43:57.945Z,99951.83
2023-02-16T19:46:26.278Z,99948.30
2023-02-16T19:48:55.524Z,99948.42
2023-02-16T19:51:24.003Z,99944.86
2023-02-16T19:53:52.287Z,99939.70
2023-02-16T19:56:22.505Z,99936.29
2023-02-16T19:58:52.422Z,99934.71
2023-02-16T20:01:22.989Z,99931.08
2023-02-16T20:03:51.711Z,99927.48
2023-02-16T20:06:24.179Z,99924.88
2023-02-16T20:08:52.749Z,99925.15
2023-02-16T20:11:22.522Z,99918.41
2023-02-16T20:13:50.500Z,99921.13
2023-02-16T20:16:19.312Z,99914.41
2023-02-16T20:18:48.043Z,99912.48
2023-02-16T20:21:22.788Z,99906.83
2023-02-16T20:23:51.939Z,99903.09
2023-02-16T20:26:25.319Z,99896.55
2023-02-16T20:28:53.998Z,99895.08
2023-02-16T20:31:34.552Z,99897.81
2023-02-16T20:34:03.362Z,99899.73
2023-02-16T20:36:32.703Z,99893.83
2023-02-16T20:39:01.037Z,99896.30
2023-02-16T20:41:29.247Z,99890.11
2023-02-16T20:43:58.250Z,99890.70
2023-02-16T20:46:26.508Z,99889.34
2023-02-16T20:48:54.937Z,99891.25
2023-02-16T20:51:22.925Z,99885.00
2023-02-16T20:53:51.168Z,99882.55
2023-02-16T20:56:24.191Z,99876.21
2023-02-16T20:58:57.755Z,99874.86
2023-02-16T21:01:29.340Z,99873.12
2023-02-16T21:03:58.486Z,99869.50
2023-02-16T21:06:27.077Z,99866.52
2023-02-16T21:08:55.137Z,99865.98
2023-02-16T21:11:23.420Z,99860.44
2023-02-16T21:13:51.767Z,99855.39
2023-02-16T21:16:23.838Z,99853.56
2023-02-16T21:18:52.214Z,99850.76
2023-02-16T21:21:20.767Z,99845.99
2023-02-16T21:23:50.669Z,99844.02
2023-02-16T21:26:19.942Z,99840.19
2023-02-16T21:28:48.352Z,99840.48
2023-02-16T21:31:23.565Z,99839.16
2023-02-16T21:33:52.548Z,99837.29
2023-02-16T21:36:25.368Z,99836.89
2023-02-16T21:38:53.577Z,99829.84
2023-02-16T21:41:26.781Z,99833.16
2023-02-16T21:44:03.984Z,99827.10
2023-02-16T21:46:37.914Z,99826.81
2023-02-16T21:49:11.589Z,99820.04
2023-02-16T21:51:41.405Z,99821.55
2023-02-16T21:54:14.545Z,99817.95
2023-02-16T21:56:44.425Z,99819.20
2023-02-16T21:59:14.195Z,99813.22
2023-02-16T22:01:46.715Z,99812.31
2023-02-16T22:04:16.333Z,99808.16
2023-02-16T22:06:46.228Z,99807.11
2023-02-16T22:09:17.558Z,99805.13
2023-02-16T22:11:46.620Z,99802.50
2023-02-16T22:14:15.010Z,99803.66
2023-02-16T22:16:48.050Z,99804.01
2023-02-16T22:19:17.203Z,99799.69
2023-02-16T22:21:46.295Z,99800.60
2023-02-16T22:24:16.043Z,99794.14
2023-02-16T22:26:44.120Z,99792.53
2023-02-16T22:29:12.375Z,99787.76
2023-02-16T22:31:47.764Z,99785.02
2023-02-16T22:34:17.910Z,99781.64
2023-02-16T22:36:46.167Z,99780.65
2023-02-16T22:39:15.186Z,99777.15
2023-02-16T22:41:43.713Z,99775.45
2023-02-16T22:44:12.067Z,99775.49
2023-02-16T22:46:40.703Z,99773.48
2023-02-16T22:49:09.134Z,99771.13
2023-02-16T22:51:37.727Z,99771.43
2023-02-16T22:54:06.355Z,99766.27
2023-02-16T22:56:35.391Z,99760.08
2023-02-16T22:59:03.393Z,99760.30
2023-02-16T23:01:32.463Z,99764.52
2023-02-16T23:04:02.076Z,99757.19
2023-02-16T23:06:35.073Z,99754.27
2023-02-16T23:09:08.000Z,99755.53
2023-02-16T23:11:36.828Z,99754.70
2023-02-16T23:14:05.579Z,99752.20
2023-02-16T23:16:33.995Z,99754.71
2023-02-16T23:19:02.067Z,99749.52
2023-02-16T23:21:32.036Z,99751.91
2023-02-16T23:24:00.376Z,99755.58
2023-02-16T23:26:29.620Z,99756.54
2023-02-16T23:28:59.953Z,99748.41
2023-02-16T23:31:33.398Z,99749.20
2023-02-16T23:34:03.508Z,99750.55
2023-02-16T23:36:35.520Z,99741.38
2023-02-16T23:39:15.225Z,99735.91
2023-02-16T23:41:44.132Z,99736.05
2023-02-16T23:44:12.820Z,99732.11
2023-02-16T23:46:41.016Z,99732.53
2023-02-16T23:49:09.127Z,99733.59
2023-02-16T23:51:37.419Z,99729.84
2023-02-16T23:54:05.786Z,99730.77
2023-02-16T23:56:33.999Z,99728.40
2023-02-16T23:59:02.947Z,99727.11
